sensor_id;sensor_type;location;lat;lon;timestamp;pressure;altitude;pressure_sealevel;temperature
68027;BMP180;54819;48.030;14.710;2023-07-29T00:01:28;97236.40;;;19.20
68027;BMP180;54819;48.030;14.710;2023-07-29T00:03:55;97232.20;;;19.20
68027;BMP180;54819;48.030;14.710;2023-07-29T00:06:23;97231.80;;;19.18
68027;BMP180;54819;48.030;14.710;2023-07-29T00:08:50;97222.00;;;19.10
68027;BMP180;54819;48.030;14.710;2023-07-29T00:11:16;97218.80;;;19.10
68027;BMP180;54819;48.030;14.710;2023-07-29T00:13:43;97215.80;;;19.10
68027;BMP180;54819;48.030;14.710;2023-07-29T00:16:10;97203.60;;;19.10
68027;BMP180;54819;48.030;14.710;2023-07-29T00:18:37;97200.00;;;19.10
68027;BMP180;54819;48.030;14.710;2023-07-29T00:21:04;97200.00;;;19.10
68027;BMP180;54819;48.030;14.710;2023-07-29T00:23:30;97206.80;;;19.12
68027;BMP180;54819;48.030;14.710;2023-07-29T00:25:57;97198.60;;;19.14
68027;BMP180;54819;48.030;14.710;2023-07-29T00:28:23;97193.80;;;19.16
68027;BMP180;54819;48.030;14.710;2023-07-29T00:30:50;97200.40;;;19.20
68027;BMP180;54819;48.030;14.710;2023-07-29T00:33:17;97197.80;;;19.20
68027;BMP180;54819;48.030;14.710;2023-07-29T00:35:44;97201.00;;;19.20
68027;BMP180;54819;48.030;14.710;2023-07-29T00:38:11;97198.20;;;19.20
68027;BMP180;54819;48.030;14.710;2023-07-29T00:40:37;97196.60;;;19.20
68027;BMP180;54819;48.030;14.710;2023-07-29T00:43:04;97206.40;;;19.20
68027;BMP180;54819;48.030;14.710;2023-07-29T00:45:32;97208.20;;;19.20
68027;BMP180;54819;48.030;14.710;2023-07-29T00:48:03;97209.20;;;19.18
68027;BMP180;54819;48.030;14.710;2023-07-29T00:50:32;97214.40;;;19.10
68027;BMP180;54819;48.030;14.710;2023-07-29T00:53:00;97219.60;;;19.10
68027;BMP180;54819;48.030;14.710;2023-07-29T00:55:28;97219.40;;;19.10
68027;BMP180;54819;48.030;14.710;2023-07-29T00:57:55;97220.00;;;19.10
68027;BMP180;54819;48.030;14.710;2023-07-29T01:00:21;97222.20;;;19.10
68027;BMP180;54819;48.030;14.710;2023-07-29T01:02:48;97228.20;;;19.10
68027;BMP180;54819;48.030;14.710;2023-07-29T01:05:16;97230.00;;;19.10
68027;BMP180;54819;48.030;14.710;2023-07-29T01:07:52;97230.00;;;19.10
68027;BMP180;54819;48.030;14.710;2023-07-29T01:13:16;97238.80;;;19.10
68027;BMP180;54819;48.030;14.710;2023-07-29T01:15:55;97236.40;;;19.10
68027;BMP180;54819;48.030;14.710;2023-07-29T01:18:28;97232.40;;;19.10
68027;BMP180;54819;48.030;14.710;2023-07-29T01:20:59;97246.80;;;19.10
68027;BMP180;54819;48.030;14.710;2023-07-29T01:23:36;97234.40;;;19.10
68027;BMP180;54819;48.030;14.710;2023-07-29T01:26:04;97242.20;;;19.10
68027;BMP180;54819;48.030;14.710;2023-07-29T01:28:32;97240.60;;;19.10
68027;BMP180;54819;48.030;14.710;2023-07-29T01:31:12;97234.60;;;19.10
68027;BMP180;54819;48.030;14.710;2023-07-29T01:33:42;97231.80;;;19.10
68027;BMP180;54819;48.030;14.710;2023-07-29T01:36:16;97242.20;;;19.04
68027;BMP180;54819;48.030;14.710;2023-07-29T01:38:45;97232.60;;;19.00
68027;BMP180;54819;48.030;14.710;2023-07-29T01:41:14;97232.60;;;19.00
68027;BMP180;54819;48.030;14.710;2023-07-29T01:43:41;97229.00;;;19.00
68027;BMP180;54819;48.030;14.710;2023-07-29T01:46:10;97227.00;;;19.00
68027;BMP180;54819;48.030;14.710;2023-07-29T01:48:39;97233.80;;;18.96
68027;BMP180;54819;48.030;14.710;2023-07-29T01:51:06;97231.00;;;18.92
68027;BMP180;54819;48.030;14.710;2023-07-29T01:53:33;97231.60;;;18.90
68027;BMP180;54819;48.030;14.710;2023-07-29T01:56:00;97233.40;;;18.90
68027;BMP180;54819;48.030;14.710;2023-07-29T01:58:27;97230.00;;;18.90
68027;BMP180;54819;48.030;14.710;2023-07-29T02:00:53;97228.80;;;18.90
68027;BMP180;54819;48.030;14.710;2023-07-29T02:03:20;97225.00;;;18.90
68027;BMP180;54819;48.030;14.710;2023-07-29T02:05:47;97226.40;;;18.90
68027;BMP180;54819;48.030;14.710;2023-07-29T02:08:14;97239.60;;;18.90
68027;BMP180;54819;48.030;14.710;2023-07-29T02:10:40;97242.00;;;18.90
68027;BMP180;54819;48.030;14.710;2023-07-29T02:13:09;97241.80;;;18.90
68027;BMP180;54819;48.030;14.710;2023-07-29T02:15:36;97239.80;;;18.90
68027;BMP180;54819;48.030;14.710;2023-07-29T02:18:02;97238.60;;;18.90
68027;BMP180;54819;48.030;14.710;2023-07-29T02:20:30;97239.20;;;18.82
68027;BMP180;54819;48.030;14.710;2023-07-29T02:22:56;97237.80;;;18.80
68027;BMP180;54819;48.030;14.710;2023-07-29T02:25:23;97239.80;;;18.80
68027;BMP180;54819;48.030;14.710;2023-07-29T02:27:50;97240.80;;;18.80
68027;BMP180;54819;48.030;14.710;2023-07-29T02:30:17;97245.20;;;18.80
68027;BMP180;54819;48.030;14.710;2023-07-29T02:32:43;97249.60;;;18.78
68027;BMP180;54819;48.030;14.710;2023-07-29T02:35:12;97249.80;;;18.70
68027;BMP180;54819;48.030;14.710;2023-07-29T02:37:39;97248.20;;;18.70
68027;BMP180;54819;48.030;14.710;2023-07-29T02:40:06;97234.20;;;18.70
68027;BMP180;54819;48.030;14.710;2023-07-29T02:42:34;97230.00;;;18.70
68027;BMP180;54819;48.030;14.710;2023-07-29T02:45:00;97230.00;;;18.70
68027;BMP180;54819;48.030;14.710;2023-07-29T02:47:27;97226.00;;;18.70
68027;BMP180;54819;48.030;14.710;2023-07-29T02:49:54;97225.60;;;18.70
68027;BMP180;54819;48.030;14.710;2023-07-29T02:52:21;97224.40;;;18.70
68027;BMP180;54819;48.030;14.710;2023-07-29T02:54:47;97227.00;;;18.70
68027;BMP180;54819;48.030;14.710;2023-07-29T02:57:14;97226.20;;;18.66
68027;BMP180;54819;48.030;14.710;2023-07-29T02:59:41;97226.40;;;18.70
68027;BMP180;54819;48.030;14.710;2023-07-29T03:02:07;97224.80;;;18.70
68027;BMP180;54819;48.030;14.710;2023-07-29T03:04:34;97224.60;;;18.70
68027;BMP180;54819;48.030;14.710;2023-07-29T03:07:00;97222.80;;;18.70
68027;BMP180;54819;48.030;14.710;2023-07-29T03:09:27;97222.60;;;18.70
68027;BMP180;54819;48.030;14.710;2023-07-29T03:11:54;97220.80;;;18.70
68027;BMP180;54819;48.030;14.710;2023-07-29T03:14:21;97219.00;;;18.70
68027;BMP180;54819;48.030;14.710;2023-07-29T03:16:48;97216.60;;;18.70
68027;BMP180;54819;48.030;14.710;2023-07-29T03:19:15;97219.80;;;18.70
68027;BMP180;54819;48.030;14.710;2023-07-29T03:21:42;97219.20;;;18.68
68027;BMP180;54819;48.030;14.710;2023-07-29T03:24:08;97221.60;;;18.64
68027;BMP180;54819;48.030;14.710;2023-07-29T03:26:35;97220.20;;;18.68
68027;BMP180;54819;48.030;14.710;2023-07-29T03:29:02;97225.00;;;18.60
68027;BMP180;54819;48.030;14.710;2023-07-29T03:31:29;97222.00;;;18.60
68027;BMP180;54819;48.030;14.710;2023-07-29T03:33:55;97220.60;;;18.60
68027;BMP180;54819;48.030;14.710;2023-07-29T03:36:23;97221.20;;;18.60
68027;BMP180;54819;48.030;14.710;2023-07-29T03:38:52;97226.40;;;18.60
68027;BMP180;54819;48.030;14.710;2023-07-29T03:41:18;97215.80;;;18.60
68027;BMP180;54819;48.030;14.710;2023-07-29T03:43:45;97223.00;;;18.60
68027;BMP180;54819;48.030;14.710;2023-07-29T03:46:12;97227.60;;;18.60
68027;BMP180;54819;48.030;14.710;2023-07-29T03:48:40;97225.40;;;18.60
68027;BMP180;54819;48.030;14.710;2023-07-29T03:51:07;97229.00;;;18.70
68027;BMP180;54819;48.030;14.710;2023-07-29T03:53:33;97226.60;;;18.68
68027;BMP180;54819;48.030;14.710;2023-07-29T03:56:00;97228.60;;;18.70
68027;BMP180;54819;48.030;14.710;2023-07-29T03:58:27;97229.60;;;18.80
68027;BMP180;54819;48.030;14.710;2023-07-29T04:00:54;97232.60;;;18.86
68027;BMP180;54819;48.030;14.710;2023-07-29T04:03:20;97232.80;;;18.90
68027;BMP180;54819;48.030;14.710;2023-07-29T04:05:48;97232.80;;;19.00
68027;BMP180;54819;48.030;14.710;2023-07-29T04:08:14;97240.20;;;19.00
68027;BMP180;54819;48.030;14.710;2023-07-29T04:10:41;97243.60;;;19.00
68027;BMP180;54819;48.030;14.710;2023-07-29T04:13:08;97247.80;;;19.10
68027;BMP180;54819;48.030;14.710;2023-07-29T04:15:35;97247.40;;;19.10
68027;BMP180;54819;48.030;14.710;2023-07-29T04:18:02;97242.40;;;19.20
68027;BMP180;54819;48.030;14.710;2023-07-29T04:20:30;97251.20;;;19.30
68027;BMP180;54819;48.030;14.710;2023-07-29T04:22:56;97249.20;;;19.30
68027;BMP180;54819;48.030;14.710;2023-07-29T04:25:23;97254.00;;;19.40
68027;BMP180;54819;48.030;14.710;2023-07-29T04:27:50;97258.20;;;19.50
68027;BMP180;54819;48.030;14.710;2023-07-29T04:30:16;97260.60;;;19.70
68027;BMP180;54819;48.030;14.710;2023-07-29T04:32:43;97258.60;;;19.80
68027;BMP180;54819;48.030;14.710;2023-07-29T04:35:11;97245.00;;;20.14
68027;BMP180;54819;48.030;14.710;2023-07-29T04:37:38;97222.60;;;21.74
68027;BMP180;54819;48.030;14.710;2023-07-29T04:40:07;97227.20;;;23.38
68027;BMP180;54819;48.030;14.710;2023-07-29T04:42:33;97245.80;;;24.34
68027;BMP180;54819;48.030;14.710;2023-07-29T04:45:01;97251.00;;;24.58
68027;BMP180;54819;48.030;14.710;2023-07-29T04:47:31;97272.80;;;23.84
68027;BMP180;54819;48.030;14.710;2023-07-29T04:49:57;97277.40;;;23.32
68027;BMP180;54819;48.030;14.710;2023-07-29T04:52:24;97276.80;;;23.00
68027;BMP180;54819;48.030;14.710;2023-07-29T04:54:51;97276.60;;;22.88
68027;BMP180;54819;48.030;14.710;2023-07-29T04:57:17;97280.80;;;22.70
68027;BMP180;54819;48.030;14.710;2023-07-29T04:59:44;97281.80;;;22.50
68027;BMP180;54819;48.030;14.710;2023-07-29T05:02:11;97283.00;;;22.40
68027;BMP180;54819;48.030;14.710;2023-07-29T05:04:37;97280.80;;;22.30
68027;BMP180;54819;48.030;14.710;2023-07-29T05:07:05;97274.40;;;22.40
68027;BMP180;54819;48.030;14.710;2023-07-29T05:09:31;97275.60;;;22.80
68027;BMP180;54819;48.030;14.710;2023-07-29T05:11:58;97280.00;;;22.60
68027;BMP180;54819;48.030;14.710;2023-07-29T05:14:25;97281.00;;;22.50
68027;BMP180;54819;48.030;14.710;2023-07-29T05:16:51;97281.80;;;22.50
68027;BMP180;54819;48.030;14.710;2023-07-29T05:19:18;97279.20;;;22.50
68027;BMP180;54819;48.030;14.710;2023-07-29T05:21:45;97273.40;;;22.60
68027;BMP180;54819;48.030;14.710;2023-07-29T05:24:12;97270.40;;;22.70
68027;BMP180;54819;48.030;14.710;2023-07-29T05:26:38;97273.20;;;22.90
68027;BMP180;54819;48.030;14.710;2023-07-29T05:29:05;97269.20;;;23.08
68027;BMP180;54819;48.030;14.710;2023-07-29T05:31:33;97268.60;;;23.20
68027;BMP180;54819;48.030;14.710;2023-07-29T05:34:00;97268.80;;;23.30
68027;BMP180;54819;48.030;14.710;2023-07-29T05:36:27;97270.40;;;23.30
68027;BMP180;54819;48.030;14.710;2023-07-29T05:38:53;97266.20;;;23.30
68027;BMP180;54819;48.030;14.710;2023-07-29T05:41:20;97268.60;;;23.20
68027;BMP180;54819;48.030;14.710;2023-07-29T05:43:47;97267.60;;;23.10
68027;BMP180;54819;48.030;14.710;2023-07-29T05:46:14;97265.60;;;23.00
68027;BMP180;54819;48.030;14.710;2023-07-29T05:48:41;97265.00;;;23.00
68027;BMP180;54819;48.030;14.710;2023-07-29T05:51:07;97266.40;;;22.98
68027;BMP180;54819;48.030;14.710;2023-07-29T05:53:34;97268.00;;;22.90
68027;BMP180;54819;48.030;14.710;2023-07-29T05:56:01;97263.40;;;22.90
68027;BMP180;54819;48.030;14.710;2023-07-29T05:58:28;97259.20;;;22.80
68027;BMP180;54819;48.030;14.710;2023-07-29T06:00:58;97261.60;;;22.80
68027;BMP180;54819;48.030;14.710;2023-07-29T06:03:24;97262.20;;;22.80
68027;BMP180;54819;48.030;14.710;2023-07-29T06:05:51;97260.00;;;22.80
68027;BMP180;54819;48.030;14.710;2023-07-29T06:08:21;97261.00;;;22.72
68027;BMP180;54819;48.030;14.710;2023-07-29T06:10:47;97260.60;;;22.70
68027;BMP180;54819;48.030;14.710;2023-07-29T06:13:14;97262.20;;;22.70
68027;BMP180;54819;48.030;14.710;2023-07-29T06:15:41;97263.00;;;22.70
68027;BMP180;54819;48.030;14.710;2023-07-29T06:18:07;97267.00;;;22.70
68027;BMP180;54819;48.030;14.710;2023-07-29T06:20:34;97264.60;;;22.74
68027;BMP180;54819;48.030;14.710;2023-07-29T06:23:02;97266.00;;;22.76
68027;BMP180;54819;48.030;14.710;2023-07-29T06:25:29;97266.40;;;22.80
68027;BMP180;54819;48.030;14.710;2023-07-29T06:27:55;97265.40;;;22.80
68027;BMP180;54819;48.030;14.710;2023-07-29T06:30:22;97263.80;;;22.80
68027;BMP180;54819;48.030;14.710;2023-07-29T06:32:49;97266.20;;;22.90
68027;BMP180;54819;48.030;14.710;2023-07-29T06:35:16;97269.60;;;22.90
68027;BMP180;54819;48.030;14.710;2023-07-29T06:37:42;97272.20;;;22.90
68027;BMP180;54819;48.030;14.710;2023-07-29T06:40:09;97265.80;;;22.90
68027;BMP180;54819;48.030;14.710;2023-07-29T06:42:36;97264.80;;;23.00
68027;BMP180;54819;48.030;14.710;2023-07-29T06:45:05;97265.40;;;23.00
68027;BMP180;54819;48.030;14.710;2023-07-29T06:47:31;97265.80;;;23.00
68027;BMP180;54819;48.030;14.710;2023-07-29T06:49:58;97255.80;;;23.00
68027;BMP180;54819;48.030;14.710;2023-07-29T06:52:25;97253.20;;;23.00
68027;BMP180;54819;48.030;14.710;2023-07-29T06:54:51;97253.40;;;23.00
68027;BMP180;54819;48.030;14.710;2023-07-29T06:57:18;97250.20;;;23.00
68027;BMP180;54819;48.030;14.710;2023-07-29T06:59:45;97257.40;;;23.00
68027;BMP180;54819;48.030;14.710;2023-07-29T07:02:11;97254.20;;;23.10
68027;BMP180;54819;48.030;14.710;2023-07-29T07:04:38;97247.00;;;23.10
68027;BMP180;54819;48.030;14.710;2023-07-29T07:07:05;97242.20;;;23.14
68027;BMP180;54819;48.030;14.710;2023-07-29T07:09:31;97238.20;;;23.20
68027;BMP180;54819;48.030;14.710;2023-07-29T07:11:58;97234.20;;;23.30
68027;BMP180;54819;48.030;14.710;2023-07-29T07:14:24;97227.40;;;23.40
68027;BMP180;54819;48.030;14.710;2023-07-29T07:16:52;97232.40;;;23.50
68027;BMP180;54819;48.030;14.710;2023-07-29T07:19:18;97235.00;;;23.50
68027;BMP180;54819;48.030;14.710;2023-07-29T07:21:45;97232.40;;;23.50
68027;BMP180;54819;48.030;14.710;2023-07-29T07:24:12;97227.80;;;23.60
68027;BMP180;54819;48.030;14.710;2023-07-29T07:26:38;97224.00;;;23.70
68027;BMP180;54819;48.030;14.710;2023-07-29T07:29:05;97221.60;;;23.70
68027;BMP180;54819;48.030;14.710;2023-07-29T07:31:33;97221.00;;;23.80
68027;BMP180;54819;48.030;14.710;2023-07-29T07:34:00;97222.60;;;23.90
68027;BMP180;54819;48.030;14.710;2023-07-29T07:36:29;97222.00;;;24.00
68027;BMP180;54819;48.030;14.710;2023-07-29T07:38:56;97215.20;;;24.00
68027;BMP180;54819;48.030;14.710;2023-07-29T07:41:23;97212.00;;;24.10
68027;BMP180;54819;48.030;14.710;2023-07-29T07:43:50;97208.80;;;24.20
68027;BMP180;54819;48.030;14.710;2023-07-29T07:46:17;97209.20;;;24.20
68027;BMP180;54819;48.030;14.710;2023-07-29T07:48:44;97210.00;;;24.30
68027;BMP180;54819;48.030;14.710;2023-07-29T07:51:11;97204.40;;;24.40
68027;BMP180;54819;48.030;14.710;2023-07-29T07:53:39;97200.60;;;24.50
68027;BMP180;54819;48.030;14.710;2023-07-29T07:56:07;97192.60;;;24.60
68027;BMP180;54819;48.030;14.710;2023-07-29T07:58:34;97193.20;;;24.70
68027;BMP180;54819;48.030;14.710;2023-07-29T08:01:05;97188.00;;;24.80
68027;BMP180;54819;48.030;14.710;2023-07-29T08:03:33;97184.20;;;24.90
68027;BMP180;54819;48.030;14.710;2023-07-29T08:06:01;97183.80;;;25.00
68027;BMP180;54819;48.030;14.710;2023-07-29T08:08:28;97178.00;;;25.20
68027;BMP180;54819;48.030;14.710;2023-07-29T08:10:56;97175.80;;;25.40
68027;BMP180;54819;48.030;14.710;2023-07-29T08:13:24;97182.00;;;25.60
68027;BMP180;54819;48.030;14.710;2023-07-29T08:15:52;97184.80;;;25.70
68027;BMP180;54819;48.030;14.710;2023-07-29T08:18:19;97185.40;;;25.80
68027;BMP180;54819;48.030;14.710;2023-07-29T08:20:54;97189.20;;;25.80
68027;BMP180;54819;48.030;14.710;2023-07-29T08:23:21;97188.80;;;25.80
68027;BMP180;54819;48.030;14.710;2023-07-29T08:25:56;97185.60;;;25.80
68027;BMP180;54819;48.030;14.710;2023-07-29T08:28:28;97185.40;;;25.80
68027;BMP180;54819;48.030;14.710;2023-07-29T08:30:55;97180.00;;;25.90
68027;BMP180;54819;48.030;14.710;2023-07-29T08:33:22;97176.80;;;25.90
68027;BMP180;54819;48.030;14.710;2023-07-29T08:35:49;97179.40;;;25.80
68027;BMP180;54819;48.030;14.710;2023-07-29T08:38:16;97171.20;;;25.80
68027;BMP180;54819;48.030;14.710;2023-07-29T08:41:28;97172.40;;;25.80
68027;BMP180;54819;48.030;14.710;2023-07-29T08:46:44;97171.40;;;25.94
68027;BMP180;54819;48.030;14.710;2023-07-29T08:49:15;97170.20;;;25.96
68027;BMP180;54819;48.030;14.710;2023-07-29T08:51:48;97167.80;;;25.90
68027;BMP180;54819;48.030;14.710;2023-07-29T08:54:15;97165.20;;;25.90
68027;BMP180;54819;48.030;14.710;2023-07-29T08:56:43;97163.60;;;26.00
68027;BMP180;54819;48.030;14.710;2023-07-29T08:59:10;97165.80;;;26.00
68027;BMP180;54819;48.030;14.710;2023-07-29T09:01:41;97161.40;;;26.00
68027;BMP180;54819;48.030;14.710;2023-07-29T09:04:08;97161.00;;;26.00
68027;BMP180;54819;48.030;14.710;2023-07-29T09:06:36;97160.20;;;26.10
68027;BMP180;54819;48.030;14.710;2023-07-29T09:09:07;97166.60;;;26.10
68027;BMP180;54819;48.030;14.710;2023-07-29T09:11:34;97169.20;;;26.20
68027;BMP180;54819;48.030;14.710;2023-07-29T09:14:01;97165.20;;;26.30
68027;BMP180;54819;48.030;14.710;2023-07-29T09:16:28;97165.80;;;26.30
68027;BMP180;54819;48.030;14.710;2023-07-29T09:18:55;97164.00;;;26.24
68027;BMP180;54819;48.030;14.710;2023-07-29T09:21:24;97163.40;;;26.30
68027;BMP180;54819;48.030;14.710;2023-07-29T09:23:55;97168.00;;;26.30
68027;BMP180;54819;48.030;14.710;2023-07-29T09:26:26;97169.00;;;26.30
68027;BMP180;54819;48.030;14.710;2023-07-29T09:28:55;97172.60;;;26.34
68027;BMP180;54819;48.030;14.710;2023-07-29T09:31:24;97171.40;;;26.42
68027;BMP180;54819;48.030;14.710;2023-07-29T09:34:01;97170.80;;;26.50
68027;BMP180;54819;48.030;14.710;2023-07-29T09:36:33;97177.00;;;26.52
68027;BMP180;54819;48.030;14.710;2023-07-29T09:39:00;97167.00;;;26.60
68027;BMP180;54819;48.030;14.710;2023-07-29T09:41:28;97171.60;;;26.60
68027;BMP180;54819;48.030;14.710;2023-07-29T09:43:59;97168.40;;;26.70
68027;BMP180;54819;48.030;14.710;2023-07-29T09:46:37;97161.40;;;26.70
68027;BMP180;54819;48.030;14.710;2023-07-29T09:49:06;97161.60;;;26.80
68027;BMP180;54819;48.030;14.710;2023-07-29T09:51:38;97160.40;;;26.80
68027;BMP180;54819;48.030;14.710;2023-07-29T09:54:06;97158.40;;;26.80
68027;BMP180;54819;48.030;14.710;2023-07-29T09:56:33;97160.60;;;26.90
68027;BMP180;54819;48.030;14.710;2023-07-29T09:59:00;97158.00;;;27.00
68027;BMP180;54819;48.030;14.710;2023-07-29T10:01:31;97157.40;;;27.00
68027;BMP180;54819;48.030;14.710;2023-07-29T10:03:59;97157.60;;;27.10
68027;BMP180;54819;48.030;14.710;2023-07-29T10:06:28;97159.00;;;27.20
68027;BMP180;54819;48.030;14.710;2023-07-29T10:08:56;97163.80;;;27.40
68027;BMP180;54819;48.030;14.710;2023-07-29T10:11:24;97164.40;;;27.50
68027;BMP180;54819;48.030;14.710;2023-07-29T10:13:52;97162.20;;;27.70
68027;BMP180;54819;48.030;14.710;2023-07-29T10:16:36;97166.00;;;27.90
68027;BMP180;54819;48.030;14.710;2023-07-29T10:19:04;97173.20;;;28.14
68027;BMP180;54819;48.030;14.710;2023-07-29T10:21:31;97179.00;;;28.44
68027;BMP180;54819;48.030;14.710;2023-07-29T10:24:01;97182.20;;;28.80
68027;BMP180;54819;48.030;14.710;2023-07-29T10:26:29;97185.00;;;29.00
68027;BMP180;54819;48.030;14.710;2023-07-29T10:28:59;97187.20;;;29.20
68027;BMP180;54819;48.030;14.710;2023-07-29T10:31:32;97197.40;;;29.40
68027;BMP180;54819;48.030;14.710;2023-07-29T10:33:59;97201.80;;;29.50
68027;BMP180;54819;48.030;14.710;2023-07-29T10:36:27;97204.80;;;29.70
68027;BMP180;54819;48.030;14.710;2023-07-29T10:38:54;97204.20;;;29.84
68027;BMP180;54819;48.030;14.710;2023-07-29T10:41:21;97204.60;;;29.90
68027;BMP180;54819;48.030;14.710;2023-07-29T10:43:48;97206.80;;;29.90
68027;BMP180;54819;48.030;14.710;2023-07-29T10:46:22;97202.00;;;30.00
68027;BMP180;54819;48.030;14.710;2023-07-29T10:51:35;97210.20;;;30.00
68027;BMP180;54819;48.030;14.710;2023-07-29T10:54:13;97208.40;;;29.90
68027;BMP180;54819;48.030;14.710;2023-07-29T10:56:43;97215.40;;;29.74
68027;BMP180;54819;48.030;14.710;2023-07-29T11:01:51;97206.40;;;29.48
68027;BMP180;54819;48.030;14.710;2023-07-29T11:09:53;97201.60;;;29.40
68027;BMP180;54819;48.030;14.710;2023-07-29T11:12:43;97198.00;;;29.50
68027;BMP180;54819;48.030;14.710;2023-07-29T11:17:52;97187.00;;;29.70
68027;BMP180;54819;48.030;14.710;2023-07-29T11:20:28;97183.60;;;29.90
68027;BMP180;54819;48.030;14.710;2023-07-29T11:22:56;97183.40;;;30.00
68027;BMP180;54819;48.030;14.710;2023-07-29T11:25:24;97186.00;;;30.16
68027;BMP180;54819;48.030;14.710;2023-07-29T11:27:53;97187.60;;;30.20
68027;BMP180;54819;48.030;14.710;2023-07-29T11:30:20;97183.40;;;30.30
68027;BMP180;54819;48.030;14.710;2023-07-29T11:32:47;97188.80;;;30.40
68027;BMP180;54819;48.030;14.710;2023-07-29T11:35:18;97199.60;;;30.50
68027;BMP180;54819;48.030;14.710;2023-07-29T11:37:49;97204.40;;;30.50
68027;BMP180;54819;48.030;14.710;2023-07-29T11:42:48;97211.40;;;30.30
68027;BMP180;54819;48.030;14.710;2023-07-29T11:45:20;97210.40;;;30.20
68027;BMP180;54819;48.030;14.710;2023-07-29T11:47:49;97218.40;;;30.20
68027;BMP180;54819;48.030;14.710;2023-07-29T11:50:16;97222.00;;;30.30
68027;BMP180;54819;48.030;14.710;2023-07-29T11:52:44;97219.40;;;30.20
68027;BMP180;54819;48.030;14.710;2023-07-29T11:55:12;97223.40;;;30.18
68027;BMP180;54819;48.030;14.710;2023-07-29T11:57:40;97212.00;;;30.00
68027;BMP180;54819;48.030;14.710;2023-07-29T12:00:09;97203.00;;;29.90
68027;BMP180;54819;48.030;14.710;2023-07-29T12:02:42;97195.00;;;29.90
68027;BMP180;54819;48.030;14.710;2023-07-29T12:05:13;97190.20;;;29.90
68027;BMP180;54819;48.030;14.710;2023-07-29T12:07:42;97184.60;;;29.80
68027;BMP180;54819;48.030;14.710;2023-07-29T12:10:10;97183.60;;;29.78
68027;BMP180;54819;48.030;14.710;2023-07-29T12:12:44;97176.00;;;29.80
68027;BMP180;54819;48.030;14.710;2023-07-29T12:15:11;97167.40;;;29.80
68027;BMP180;54819;48.030;14.710;2023-07-29T12:17:41;97164.40;;;29.90
68027;BMP180;54819;48.030;14.710;2023-07-29T12:20:09;97160.40;;;30.00
68027;BMP180;54819;48.030;14.710;2023-07-29T12:22:37;97157.80;;;30.10
68027;BMP180;54819;48.030;14.710;2023-07-29T12:25:04;97156.60;;;30.10
68027;BMP180;54819;48.030;14.710;2023-07-29T12:27:31;97159.00;;;30.10
68027;BMP180;54819;48.030;14.710;2023-07-29T12:30:01;97163.00;;;30.10
68027;BMP180;54819;48.030;14.710;2023-07-29T12:32:30;97163.60;;;30.00
68027;BMP180;54819;48.030;14.710;2023-07-29T12:34:57;97163.80;;;30.00
68027;BMP180;54819;48.030;14.710;2023-07-29T12:37:31;97159.60;;;29.90
68027;BMP180;54819;48.030;14.710;2023-07-29T12:39:58;97157.60;;;29.76
68027;BMP180;54819;48.030;14.710;2023-07-29T12:42:25;97155.20;;;29.60
68027;BMP180;54819;48.030;14.710;2023-07-29T12:44:52;97153.40;;;29.50
68027;BMP180;54819;48.030;14.710;2023-07-29T12:47:18;97147.60;;;29.50
68027;BMP180;54819;48.030;14.710;2023-07-29T12:49:45;97140.80;;;29.40
68027;BMP180;54819;48.030;14.710;2023-07-29T12:52:12;97135.80;;;29.30
68027;BMP180;54819;48.030;14.710;2023-07-29T12:54:38;97126.40;;;29.30
68027;BMP180;54819;48.030;14.710;2023-07-29T12:57:06;97128.80;;;29.20
68027;BMP180;54819;48.030;14.710;2023-07-29T12:59:33;97130.40;;;29.20
68027;BMP180;54819;48.030;14.710;2023-07-29T13:01:59;97124.80;;;29.20
68027;BMP180;54819;48.030;14.710;2023-07-29T13:04:26;97119.40;;;29.20
68027;BMP180;54819;48.030;14.710;2023-07-29T13:06:52;97114.20;;;29.30
68027;BMP180;54819;48.030;14.710;2023-07-29T13:09:19;97114.80;;;29.30
68027;BMP180;54819;48.030;14.710;2023-07-29T13:11:46;97114.20;;;29.40
68027;BMP180;54819;48.030;14.710;2023-07-29T13:14:12;97114.40;;;29.50
68027;BMP180;54819;48.030;14.710;2023-07-29T13:16:39;97112.80;;;29.60
68027;BMP180;54819;48.030;14.710;2023-07-29T13:19:07;97112.80;;;29.80
68027;BMP180;54819;48.030;14.710;2023-07-29T13:21:33;97109.20;;;30.00
68027;BMP180;54819;48.030;14.710;2023-07-29T13:24:00;97102.20;;;30.10
68027;BMP180;54819;48.030;14.710;2023-07-29T13:26:27;97103.00;;;30.20
68027;BMP180;54819;48.030;14.710;2023-07-29T13:28:53;97096.80;;;30.20
68027;BMP180;54819;48.030;14.710;2023-07-29T13:31:22;97093.40;;;30.20
68027;BMP180;54819;48.030;14.710;2023-07-29T13:33:48;97086.40;;;30.20
68027;BMP180;54819;48.030;14.710;2023-07-29T13:36:15;97090.60;;;30.30
68027;BMP180;54819;48.030;14.710;2023-07-29T13:38:42;97087.40;;;30.30
68027;BMP180;54819;48.030;14.710;2023-07-29T13:41:08;97083.60;;;30.30
68027;BMP180;54819;48.030;14.710;2023-07-29T13:43:35;97083.60;;;30.30
68027;BMP180;54819;48.030;14.710;2023-07-29T13:46:01;97091.40;;;30.38
68027;BMP180;54819;48.030;14.710;2023-07-29T13:48:28;97096.80;;;30.40
68027;BMP180;54819;48.030;14.710;2023-07-29T13:50:55;97099.00;;;30.40
68027;BMP180;54819;48.030;14.710;2023-07-29T13:53:22;97112.60;;;30.36
68027;BMP180;54819;48.030;14.710;2023-07-29T13:55:48;97119.40;;;30.30
68027;BMP180;54819;48.030;14.710;2023-07-29T13:58:15;97127.20;;;30.20
68027;BMP180;54819;48.030;14.710;2023-07-29T14:00:42;97128.60;;;30.10
68027;BMP180;54819;48.030;14.710;2023-07-29T14:03:08;97135.20;;;29.90
68027;BMP180;54819;48.030;14.710;2023-07-29T14:05:35;97144.60;;;29.70
68027;BMP180;54819;48.030;14.710;2023-07-29T14:08:02;97157.20;;;29.50
68027;BMP180;54819;48.030;14.710;2023-07-29T14:10:29;97173.80;;;29.20
68027;BMP180;54819;48.030;14.710;2023-07-29T14:12:55;97195.60;;;28.90
68027;BMP180;54819;48.030;14.710;2023-07-29T14:15:22;97220.40;;;28.60
68027;BMP180;54819;48.030;14.710;2023-07-29T14:17:48;97253.00;;;28.32
68027;BMP180;54819;48.030;14.710;2023-07-29T14:20:15;97284.80;;;27.88
68027;BMP180;54819;48.030;14.710;2023-07-29T14:22:42;97270.20;;;27.40